Time;durP1;ratioP1;P1;durP2;ratioP2;P2;SDS_P1;SDS_P2;PMS_P1;PMS_P2;Temp;Humidity;BMP_temperature;BMP_pressure;BME280_temperature;BME280_humidity;BME280_pressure;Samples;Min_cycle;Max_cycle;Signal;HPM_P1;HPM_P2
2022/12/09 00:00:38;;;;;;;31.25;21.80;;;;;;;-1.69;87.62;99910.78;3218354;87;20993;-74
2022/12/09 00:05:29;;;;;;;39.65;23.45;;;;;;;-1.71;87.58;99920.43;3205477;86;21114;-74
2022/12/09 00:10:20;;;;;;;31.70;20.32;;;;;;;-1.72;87.67;99920.80;3185844;87;21011;-74
2022/12/09 00:15:11;;;;;;;29.70;19.45;;;;;;;-1.74;87.69;99919.84;3188314;87;21067;-74
2022/12/09 00:20:04;;;;;;;35.52;20.43;;;;;;;-1.74;87.59;99917.30;3180270;87;21523;-73
2022/12/09 00:24:55;;;;;;;29.70;21.50;;;;;;;-1.73;87.59;99916.52;3116393;89;21047;-74
2022/12/09 00:29:46;;;;;;;34.53;22.98;;;;;;;-1.73;88.03;99912.29;3111282;90;21031;-74
2022/12/09 00:34:37;;;;;;;32.13;22.13;;;;;;;-1.70;87.77;99908.14;3123460;89;21078;-74
2022/12/09 00:39:29;;;;;;;33.13;20.97;;;;;;;-1.71;87.70;99909.83;3183534;88;21494;-73
2022/12/09 00:44:20;;;;;;;37.60;22.30;;;;;;;-1.70;87.71;99924.30;3122432;88;21150;-74
2022/12/09 00:49:12;;;;;;;36.17;23.02;;;;;;;-1.70;87.98;99920.89;3156442;88;21261;-74
2022/12/09 00:54:06;;;;;;;32.63;21.10;;;;;;;-1.70;88.13;99924.30;3108794;89;21464;-74
2022/12/09 00:58:58;;;;;;;34.38;21.42;;;;;;;-1.73;87.82;99927.58;3153412;89;21026;-74
2022/12/09 01:03:49;;;;;;;35.05;23.10;;;;;;;-1.76;87.88;99908.30;3154363;89;21041;-74
2022/12/09 01:08:41;;;;;;;31.50;20.52;;;;;;;-1.79;87.96;99914.53;3127603;89;21022;-74
2022/12/09 01:13:32;;;;;;;32.55;21.45;;;;;;;-1.85;87.68;99913.31;3156398;88;21611;-74
2022/12/09 01:18:23;;;;;;;31.40;20.45;;;;;;;-1.88;87.83;99909.31;3169419;88;21010;-74
2022/12/09 01:23:14;;;;;;;33.05;20.37;;;;;;;-1.92;87.74;99905.32;3142546;89;21596;-73
2022/12/09 01:28:05;;;;;;;35.30;20.95;;;;;;;-1.95;87.80;99903.01;3177978;87;21036;-74
2022/12/09 01:32:56;;;;;;;31.48;21.27;;;;;;;-1.95;88.16;99907.73;3195637;88;20967;-74
2022/12/09 01:37:47;;;;;;;34.25;21.27;;;;;;;-1.98;87.71;99903.73;3192187;88;21057;-74
2022/12/09 01:42:38;;;;;;;31.68;20.70;;;;;;;-1.99;87.78;99892.18;3179305;88;21516;-74
2022/12/09 01:47:29;;;;;;;33.63;21.52;;;;;;;-1.99;87.87;99895.59;3168229;88;21106;-73
2022/12/09 01:52:22;;;;;;;37.03;21.73;;;;;;;-2.01;87.65;99897.19;3131950;89;21002;-74
2022/12/09 01:57:14;;;;;;;33.75;20.95;;;;;;;-2.02;87.78;99904.38;3199100;88;22596;-74
2022/12/09 02:02:08;;;;;;;31.50;21.77;;;;;;;-2.04;87.65;99897.05;3182576;88;21476;-74
2022/12/09 02:07:05;;;;;;;35.70;22.85;;;;;;;-2.07;87.47;99890.91;3158877;88;20998;-74
2022/12/09 02:12:23;;;;;;;32.98;21.75;;;;;;;-2.11;87.32;99887.29;3158775;89;21441;-73
2022/12/09 02:17:41;;;;;;;31.52;19.77;;;;;;;-2.14;87.41;99892.23;3182847;88;21092;-73
2022/12/09 02:22:44;;;;;;;33.63;21.10;;;;;;;-2.19;87.47;99884.74;3154020;89;21173;-74
2022/12/09 02:27:57;;;;;;;33.98;21.42;;;;;;;-2.24;87.19;99885.75;3155489;89;20993;-74
2022/12/09 02:33:14;;;;;;;31.20;21.52;;;;;;;-2.27;87.42;99874.14;3155453;88;21006;-73
2022/12/09 02:38:19;;;;;;;32.45;20.40;;;;;;;-2.28;87.68;99883.84;3209383;88;27294;-74
2022/12/09 02:43:15;;;;;;;37.83;20.77;;;;;;;-2.30;87.69;99886.30;3189117;88;21021;-73
2022/12/09 02:48:11;;;;;;;30.82;19.55;;;;;;;-2.34;87.20;99883.52;3191081;87;20962;-73
2022/12/09 02:53:06;;;;;;;30.40;19.70;;;;;;;-2.37;87.25;99884.20;3198601;88;21038;-73
2022/12/09 02:58:00;;;;;;;31.15;20.02;;;;;;;-2.39;87.12;99887.06;3143273;90;21022;-74
2022/12/09 03:02:58;;;;;;;30.10;20.35;;;;;;;-2.42;87.37;99890.70;3151138;88;22152;-73
2022/12/09 03:08:04;;;;;;;35.53;20.70;;;;;;;-2.43;87.27;99891.52;3161437;88;21096;-73
2022/12/09 03:13:06;;;;;;;31.80;19.77;;;;;;;-2.46;87.08;99889.20;3206621;88;21483;-74
2022/12/09 03:18:02;;;;;;;32.03;20.00;;;;;;;-2.49;87.33;99888.62;3194604;88;21106;-74
2022/12/09 03:22:58;;;;;;;31.05;19.10;;;;;;;-2.50;87.31;99883.06;3198643;87;21278;-74
2022/12/09 03:28:06;;;;;;;34.70;21.07;;;;;;;-2.53;86.64;99879.06;3164180;88;20983;-74
2022/12/09 03:32:57;;;;;;;31.07;19.25;;;;;;;-2.55;87.04;99876.43;3167633;88;20968;-73
2022/12/09 03:37:51;;;;;;;32.55;19.35;;;;;;;-2.54;87.36;99873.48;3214548;86;21075;-73
2022/12/09 03:43:05;;;;;;;34.73;20.92;;;;;;;-2.57;87.00;99882.23;3257271;86;20999;-74
2022/12/09 03:47:57;;;;;;;36.83;21.35;;;;;;;-2.58;87.39;99876.66;3234214;86;35706;-74
2022/12/09 03:52:59;;;;;;;34.43;21.37;;;;;;;-2.58;87.52;99872.84;3261739;86;21455;-74
2022/12/09 03:57:56;;;;;;;32.80;20.85;;;;;;;-2.57;87.35;99869.52;3211162;86;21542;-74
2022/12/09 04:02:47;;;;;;;34.87;21.33;;;;;;;-2.58;87.38;99865.20;3221744;86;22018;-73
2022/12/09 04:07:38;;;;;;;32.17;20.23;;;;;;;-2.61;87.20;99865.02;3234195;87;21658;-73
2022/12/09 04:12:29;;;;;;;32.65;19.62;;;;;;;-2.62;87.00;99872.20;3207268;87;20988;-74
2022/12/09 04:17:20;;;;;;;34.98;21.25;;;;;;;-2.66;87.43;99865.16;3187545;87;21022;-74
2022/12/09 04:22:11;;;;;;;32.90;20.72;;;;;;;-2.66;87.43;99865.16;3283160;85;21059;-73
2022/12/09 04:27:02;;;;;;;35.03;20.75;;;;;;;-2.68;87.05;99868.91;3143552;89;21228;-73
2022/12/09 04:31:53;;;;;;;35.73;19.73;;;;;;;-2.69;87.37;99866.73;3176305;88;21041;-73
2022/12/09 04:36:44;;;;;;;33.98;20.75;;;;;;;-2.69;87.04;99872.23;3166977;88;21026;-73
2022/12/09 04:41:36;;;;;;;34.13;19.62;;;;;;;-2.75;86.86;99867.69;3153344;87;21062;-73
2022/12/09 04:46:27;;;;;;;38.20;22.60;;;;;;;-2.76;87.02;99869.73;3187041;87;21017;-73
2022/12/09 04:51:18;;;;;;;33.90;19.95;;;;;;;-2.78;86.90;99872.59;3159309;88;21039;-73
2022/12/09 04:56:20;;;;;;;30.95;20.08;;;;;;;-2.81;86.62;99877.50;3194944;86;21020;-74
2022/12/09 05:01:14;;;;;;;38.30;21.17;;;;;;;-2.88;86.34;99871.20;3160420;88;21045;-73
2022/12/09 05:06:10;;;;;;;36.30;23.45;;;;;;;-2.88;86.84;99871.58;3196576;87;20965;-73
2022/12/09 05:11:01;;;;;;;35.73;20.10;;;;;;;-2.90;86.75;99870.62;3185131;87;21006;-73
2022/12/09 05:15:59;;;;;;;31.65;20.97;;;;;;;-2.95;86.63;99860.20;3208037;87;21105;-73
2022/12/09 05:20:50;;;;;;;34.35;20.15;;;;;;;-2.96;86.54;99867.34;3176405;88;21534;-73
2022/12/09 05:25:40;;;;;;;31.10;20.40;;;;;;;-2.99;86.78;99869.70;3247723;86;21178;-73
2022/12/09 05:30:31;;;;;;;32.38;18.92;;;;;;;-3.00;86.65;99875.59;3235396;86;22331;-73
2022/12/09 05:35:22;;;;;;;29.48;19.25;;;;;;;-3.05;86.47;99873.17;3142193;88;22037;-73
2022/12/09 05:40:14;;;;;;;27.30;18.40;;;;;;;-3.05;86.54;99872.30;3229933;86;21040;-73
2022/12/09 05:45:06;;;;;;;31.02;19.52;;;;;;;-3.05;86.70;99871.03;3224047;87;21024;-73
2022/12/09 05:49:57;;;;;;;31.50;18.70;;;;;;;-3.07;86.61;99865.45;3140857;88;20972;-73
2022/12/09 05:54:48;;;;;;;29.02;18.20;;;;;;;-3.07;86.64;99872.21;3231507;87;20959;-73
2022/12/09 05:59:39;;;;;;;31.30;18.42;;;;;;;-3.15;86.27;99861.98;3216514;86;21190;-73
2022/12/09 06:04:30;;;;;;;41.15;18.80;;;;;;;-3.15;86.51;99860.70;3204761;86;21538;-73
2022/12/09 06:09:21;;;;;;;29.82;17.85;;;;;;;-3.16;86.47;99865.33;3210973;86;21313;-73
2022/12/09 06:14:12;;;;;;;32.23;18.42;;;;;;;-3.19;86.24;99866.02;3187662;87;20963;-73
2022/12/09 06:19:05;;;;;;;30.55;19.25;;;;;;;-3.22;86.45;99865.82;3168175;86;21061;-73
2022/12/09 06:23:56;;;;;;;28.35;18.70;;;;;;;-3.27;85.94;99863.44;3202740;86;21562;-74
2022/12/09 06:28:47;;;;;;;29.95;19.42;;;;;;;-3.28;86.21;99861.67;3274540;86;21132;-73
2022/12/09 06:33:38;;;;;;;29.90;17.67;;;;;;;-3.29;85.80;99872.61;3243940;86;21041;-73
2022/12/09 06:38:29;;;;;;;30.75;19.32;;;;;;;-3.33;85.90;99870.28;3229228;85;20996;-73
2022/12/09 06:43:21;;;;;;;30.95;19.12;;;;;;;-3.31;86.07;99868.73;3248703;87;20946;-73
2022/12/09 06:48:12;;;;;;;37.42;21.23;;;;;;;-3.33;85.60;99877.04;3223492;87;21535;-74
2022/12/09 06:53:04;;;;;;;32.33;21.10;;;;;;;-3.35;85.78;99877.34;3271355;86;21779;-73
2022/12/09 06:57:56;;;;;;;40.52;24.10;;;;;;;-3.33;85.64;99879.58;3126351;88;21045;-73
2022/12/09 07:02:47;;;;;;;39.60;22.07;;;;;;;-3.29;86.14;99878.97;3197536;87;21026;-73
2022/12/09 07:07:38;;;;;;;33.23;20.02;;;;;;;-3.24;85.78;99875.03;3153988;88;21242;-73
2022/12/09 07:12:29;;;;;;;35.78;22.05;;;;;;;-3.27;85.32;99879.96;3110494;88;26649;-73
2022/12/09 07:17:20;;;;;;;34.58;20.17;;;;;;;-3.22;85.82;99878.53;3258254;86;22308;-73
2022/12/09 07:22:12;;;;;;;31.05;19.32;;;;;;;-3.21;85.19;99878.16;3236526;86;20966;-73
2022/12/09 07:27:06;;;;;;;33.83;21.68;;;;;;;-3.20;85.33;99886.26;3238595;86;21041;-74
2022/12/09 07:31:57;;;;;;;34.15;20.17;;;;;;;-3.19;85.59;99877.45;3218454;86;20997;-73
2022/12/09 07:36:49;;;;;;;34.83;20.17;;;;;;;-3.15;85.75;99881.05;3175206;88;20986;-73
2022/12/09 07:41:40;;;;;;;37.30;21.20;;;;;;;-3.14;85.48;99876.06;3159072;86;21515;-73
2022/12/09 07:46:32;;;;;;;31.10;19.50;;;;;;;-3.09;85.63;99875.94;3181509;88;22197;-73
2022/12/09 07:51:23;;;;;;;35.45;20.95;;;;;;;-3.04;85.52;99880.40;3196981;88;21613;-73
2022/12/09 07:56:16;;;;;;;34.73;21.30;;;;;;;-2.97;85.73;99873.60;3216421;87;22068;-73
2022/12/09 08:01:11;;;;;;;31.65;20.92;;;;;;;-2.92;85.36;99881.98;3183533;88;20960;-73
2022/12/09 08:06:03;;;;;;;33.23;20.72;;;;;;;-2.85;85.59;99875.58;3195405;88;21098;-73
2022/12/09 08:10:54;;;;;;;34.38;20.37;;;;;;;-2.79;85.47;99874.67;3181781;88;21028;-73
2022/12/09 08:15:46;;;;;;;36.38;23.07;;;;;;;-2.70;85.67;99882.82;3202692;87;22868;-72
2022/12/09 08:20:38;;;;;;;32.25;20.43;;;;;;;-2.61;85.74;99885.38;3172907;88;21122;-73
2022/12/09 08:25:29;;;;;;;33.45;20.97;;;;;;;-2.50;85.91;99890.70;3147261;89;20958;-73
2022/12/09 08:30:20;;;;;;;33.18;20.52;;;;;;;-2.42;85.82;99888.16;3147961;89;21213;-73
2022/12/09 08:35:13;;;;;;;35.65;23.62;;;;;;;-2.26;85.95;99889.02;3144646;89;21058;-73
2022/12/09 08:40:07;;;;;;;33.85;21.82;;;;;;;-2.18;86.16;99889.02;3163492;88;21602;-74
2022/12/09 08:44:59;;;;;;;37.80;25.65;;;;;;;-2.06;86.32;99890.97;3141991;88;21022;-73
2022/12/09 08:49:50;;;;;;;39.20;25.55;;;;;;;-1.83;86.45;99891.33;3175692;89;26724;-74
2022/12/09 08:54:40;;;;;;;48.42;28.32;;;;;;;-1.47;86.43;99886.41;3174954;88;21113;-72
2022/12/09 08:59:31;;;;;;;38.25;24.37;;;;;;;-1.26;86.59;99884.95;3142724;89;21023;-74
2022/12/09 09:04:22;;;;;;;41.53;24.02;;;;;;;-1.10;86.97;99883.19;3177490;88;21077;-74
2022/12/09 09:09:14;;;;;;;37.50;24.57;;;;;;;-0.98;87.00;99873.59;3180384;88;21084;-74
2022/12/09 09:14:08;;;;;;;38.30;26.50;;;;;;;-0.86;87.26;99884.41;3109403;89;21111;-74
2022/12/09 09:19:04;;;;;;;53.13;33.67;;;;;;;-0.74;87.38;99873.91;3098789;90;21144;-76
2022/12/09 09:23:54;;;;;;;52.15;34.98;;;;;;;-0.62;87.74;99874.50;3112117;90;21011;-77
2022/12/09 09:28:46;;;;;;;56.15;35.83;;;;;;;-0.50;87.94;99864.39;3125701;89;22015;-75
2022/12/09 09:33:37;;;;;;;61.33;38.38;;;;;;;-0.37;88.05;99868.43;3133537;89;21058;-74
2022/12/09 09:38:31;;;;;;;53.30;37.00;;;;;;;-0.26;88.06;99864.69;3143983;89;21105;-75
2022/12/09 09:43:30;;;;;;;56.63;38.53;;;;;;;-0.16;88.07;99868.53;3130954;89;21184;-74
2022/12/09 09:48:26;;;;;;;55.12;34.78;;;;;;;-0.06;88.11;99867.74;3166736;88;21002;-75
2022/12/09 09:53:25;;;;;;;55.90;34.80;;;;;;;0.05;88.11;99863.53;3154946;89;21534;-76
2022/12/09 09:58:37;;;;;;;52.73;33.45;;;;;;;0.13;88.15;99860.94;3126822;89;20996;-75
2022/12/09 10:03:39;;;;;;;51.40;34.67;;;;;;;0.21;88.13;99869.80;3172701;88;21073;-75
2022/12/09 10:08:54;;;;;;;57.73;35.15;;;;;;;0.26;88.09;99870.89;3134319;89;21230;-74
2022/12/09 10:13:52;;;;;;;47.67;31.42;;;;;;;0.32;88.09;99863.51;3177785;88;21001;-74
2022/12/09 10:19:07;;;;;;;51.45;34.60;;;;;;;0.38;88.01;99866.32;3171739;88;21353;-75
2022/12/09 10:24:06;;;;;;;52.67;35.08;;;;;;;0.46;88.02;99855.55;3184233;87;21047;-76
2022/12/09 10:29:18;;;;;;;55.75;34.18;;;;;;;0.52;87.90;99854.14;3211789;88;20957;-75
2022/12/09 10:34:12;;;;;;;50.55;34.95;;;;;;;0.62;87.96;99863.08;3208781;88;21105;-75
2022/12/09 10:39:04;;;;;;;51.77;33.73;;;;;;;0.77;87.79;99857.77;3179711;87;21395;-75
2022/12/09 10:44:00;;;;;;;50.23;33.90;;;;;;;0.90;87.65;99856.59;3177996;86;20996;-75
2022/12/09 10:48:57;;;;;;;53.10;32.60;;;;;;;0.99;87.49;99853.54;3208045;86;20992;-75
2022/12/09 10:54:11;;;;;;;51.75;34.88;;;;;;;1.10;87.49;99855.72;3180846;88;21023;-75
2022/12/09 10:59:28;;;;;;;50.98;36.13;;;;;;;1.17;87.38;99856.84;3172486;88;21050;-75
2022/12/09 11:04:31;;;;;;;48.33;33.73;;;;;;;1.26;87.46;99861.47;3163759;88;20971;-75
2022/12/09 11:09:27;;;;;;;51.80;33.50;;;;;;;1.36;87.15;99852.08;3243393;87;21010;-75
2022/12/09 11:14:40;;;;;;;49.73;33.38;;;;;;;1.48;87.20;99855.09;3243943;86;21029;-75
2022/12/09 11:19:35;;;;;;;47.65;31.73;;;;;;;1.67;86.93;99848.16;3247113;86;21353;-75
2022/12/09 11:24:26;;;;;;;50.73;36.23;;;;;;;1.84;86.50;99839.42;3173028;87;21416;-75
2022/12/09 11:29:18;;;;;;;49.08;35.38;;;;;;;2.01;86.43;99835.34;3205038;88;21052;-75
2022/12/09 11:34:26;;;;;;;47.85;34.03;;;;;;;2.13;86.14;99835.79;3180848;88;21546;-75
2022/12/09 11:39:20;;;;;;;;;;;;;;;2.10;86.06;99834.39;3202651;88;21059;-76
2022/12/09 11:44:28;;;;;;;51.70;34.95;;;;;;;2.02;86.13;99837.06;3177801;86;20172;-75
2022/12/09 11:49:20;;;;;;;52.20;36.00;;;;;;;1.98;86.26;99836.49;3177122;88;21236;-75
2022/12/09 11:54:28;;;;;;;49.23;36.25;;;;;;;2.05;86.21;99828.21;3127769;89;20988;-76
2022/12/09 11:59:25;;;;;;;45.67;32.58;;;;;;;2.08;85.91;99833.46;3128194;89;20977;-75
2022/12/09 12:04:33;;;;;;;44.40;30.43;;;;;;;2.09;86.00;99833.91;3129969;88;21032;-74
2022/12/09 12:09:38;;;;;;;48.15;33.55;;;;;;;2.17;85.79;99827.38;3140782;88;20989;-75
2022/12/09 12:14:30;;;;;;;45.50;33.20;;;;;;;2.21;86.03;99817.69;3152188;88;21133;-75
2022/12/09 12:19:36;;;;;;;51.30;33.98;;;;;;;2.10;85.90;99812.59;3175942;88;21008;-75
2022/12/09 12:24:41;;;;;;;48.28;32.80;;;;;;;1.98;85.97;99819.83;3223798;86;21600;-75
2022/12/09 12:29:44;;;;;;;47.55;32.85;;;;;;;1.81;86.04;99814.95;3130609;89;21041;-76
2022/12/09 12:34:56;;;;;;;48.15;32.48;;;;;;;1.65;86.29;99810.06;3236321;86;21048;-75
2022/12/09 12:40:07;;;;;;;46.55;32.50;;;;;;;1.50;86.42;99806.10;3240523;87;21752;-76
2022/12/09 12:51:26;;;;;;;49.33;33.30;;;;;;;1.21;86.80;99819.44;3251200;85;21039;-73
2022/12/09 12:56:50;;;;;;;51.10;31.95;;;;;;;1.10;87.00;99819.00;3217008;87;21451;-73
2022/12/09 13:01:59;;;;;;;49.80;33.33;;;;;;;0.98;87.23;99824.48;3148316;89;21585;-75
2022/12/09 13:06:58;;;;;;;50.58;32.53;;;;;;;0.89;87.28;99827.95;3095459;89;21429;-76
2022/12/09 13:12:52;;;;;;;46.08;32.25;;;;;;;0.79;87.41;99832.21;3086330;88;22328;-76
2022/12/09 13:17:25;;;;;;;46.23;31.05;;;;;;;0.68;87.50;99840.33;3054959;91;21047;-75
2022/12/09 13:22:23;;;;;;;43.80;30.17;;;;;;;0.58;87.58;99842.02;3091220;91;21052;-75
2022/12/09 13:27:29;;;;;;;47.75;30.48;;;;;;;0.47;87.49;99839.41;3124368;90;21641;-78
2022/12/09 13:32:40;;;;;;;47.03;31.73;;;;;;;0.36;87.52;99835.98;3138765;88;21225;-75
2022/12/09 13:37:51;;;;;;;48.75;33.42;;;;;;;0.26;87.85;99844.05;3196591;88;21044;-75
2022/12/09 13:42:52;;;;;;;47.15;32.60;;;;;;;0.17;88.00;99839.39;3146532;89;21039;-76
2022/12/09 13:47:43;;;;;;;49.08;33.53;;;;;;;0.09;88.17;99847.14;3148261;88;21480;-76
2022/12/09 13:52:51;;;;;;;43.45;30.60;;;;;;;0.01;88.19;99847.59;3161498;87;21051;-75
2022/12/09 13:57:48;;;;;;;47.60;30.92;;;;;;;-0.06;88.14;99850.27;3207059;87;21034;-76
2022/12/09 14:03:05;;;;;;;47.97;32.53;;;;;;;-0.19;88.10;99848.84;3189204;88;21541;-76
2022/12/09 14:08:03;;;;;;;47.93;30.07;;;;;;;-0.30;88.11;99841.09;3183453;88;21021;-76
2022/12/09 14:13:00;;;;;;;48.58;30.80;;;;;;;-0.41;88.00;99840.18;3214514;86;21052;-75
2022/12/09 14:17:59;;;;;;;47.80;31.17;;;;;;;-0.51;88.17;99843.09;3248150;85;21072;-75
2022/12/09 14:23:11;;;;;;;43.28;28.30;;;;;;;-0.62;88.09;99834.06;3219206;85;21297;-75
2022/12/09 14:28:26;;;;;;;42.27;28.42;;;;;;;-0.71;88.14;99840.02;3229878;86;20894;-75
2022/12/09 14:33:36;;;;;;;49.83;31.33;;;;;;;-0.81;88.11;99849.75;3203646;87;21001;-75
2022/12/09 14:39:06;;;;;;;44.10;29.32;;;;;;;-0.91;87.93;99853.96;3250274;87;21028;-75
2022/12/09 14:44:34;;;;;;;44.83;29.65;;;;;;;-0.98;88.38;99863.39;3242752;86;21667;-75
2022/12/09 14:49:28;;;;;;;51.05;30.45;;;;;;;-1.06;87.98;99855.74;3244007;86;21127;-74
2022/12/09 14:54:24;;;;;;;46.37;30.02;;;;;;;-1.19;87.58;99855.54;3227650;87;21560;-76
2022/12/09 14:59:20;;;;;;;42.50;27.70;;;;;;;-1.27;87.64;99851.34;3244911;87;21035;-77
2022/12/09 15:04:23;;;;;;;48.75;29.65;;;;;;;-1.34;87.62;99841.63;3245895;86;21539;-76
2022/12/09 15:09:16;;;;;;;47.48;27.93;;;;;;;-1.44;87.10;99838.12;3248858;87;21064;-76
2022/12/09 15:14:26;;;;;;;51.68;30.95;;;;;;;-1.51;87.30;99839.48;3200931;86;21555;-76
2022/12/09 15:19:22;;;;;;;49.95;30.23;;;;;;;-1.56;87.58;99826.52;3219311;85;20940;-73
2022/12/09 15:24:16;;;;;;;49.95;31.80;;;;;;;-1.61;87.40;99829.23;3195483;87;21614;-73
2022/12/09 15:29:19;;;;;;;46.60;30.43;;;;;;;-1.65;87.55;99815.82;3167781;88;21015;-72
2022/12/09 15:34:15;;;;;;;49.42;30.97;;;;;;;-1.68;87.68;99814.41;3180883;87;21393;-72
2022/12/09 15:39:33;;;;;;;54.67;33.23;;;;;;;-1.68;87.87;99830.08;3184278;88;21387;-72
2022/12/09 15:44:25;;;;;;;63.05;37.70;;;;;;;-1.70;87.72;99826.58;3202096;88;21005;-71
2022/12/09 15:49:25;;;;;;;63.33;37.33;;;;;;;-1.77;87.10;99826.66;3162405;88;20969;-72
2022/12/09 15:54:21;;;;;;;66.05;36.53;;;;;;;-1.80;87.47;99821.02;3203870;87;21001;-75
2022/12/09 15:59:41;;;;;;;54.93;34.33;;;;;;;-1.77;87.71;99808.81;3177348;88;21054;-74
2022/12/09 16:04:43;;;;;;;63.65;37.03;;;;;;;-1.76;87.55;99805.48;3185506;88;21711;-75
2022/12/09 16:09:35;;;;;;;55.70;35.95;;;;;;;-1.77;87.03;99807.55;3196432;88;23471;-74
2022/12/09 16:14:43;;;;;;;56.37;34.23;;;;;;;-1.76;87.34;99791.47;3183033;87;22123;-74
2022/12/09 16:19:37;;;;;;;56.88;36.23;;;;;;;-1.77;86.89;99787.16;3187473;88;21056;-74
2022/12/09 16:24:29;;;;;;;47.50;32.13;;;;;;;-1.79;86.90;99788.75;3195352;87;21059;-74
2022/12/09 16:29:31;;;;;;;64.72;40.83;;;;;;;-1.79;86.53;99784.94;3216058;87;21003;-74
2022/12/09 16:34:24;;;;;;;67.75;41.33;;;;;;;-1.81;86.78;99787.80;3230137;87;21073;-74
2022/12/09 16:39:31;;;;;;;59.15;35.88;;;;;;;-1.81;87.07;99772.52;3267219;86;21090;-74
2022/12/09 16:44:30;;;;;;;59.13;35.52;;;;;;;-1.81;86.71;99772.52;3243016;85;25006;-74
2022/12/09 16:49:21;;;;;;;56.15;35.52;;;;;;;-1.81;86.87;99771.24;3244973;86;21046;-75
2022/12/09 16:54:15;;;;;;;52.93;32.80;;;;;;;-1.83;87.00;99769.02;3241646;87;22388;-73
2022/12/09 16:59:08;;;;;;;52.60;34.20;;;;;;;-1.82;87.10;99773.33;3227536;87;21019;-75
2022/12/09 17:04:22;;;;;;;52.20;35.03;;;;;;;-1.84;87.08;99776.17;3277570;84;21256;-74
2022/12/09 17:09:13;;;;;;;55.70;33.80;;;;;;;-1.86;86.60;99766.30;3234348;87;21084;-74
2022/12/09 17:14:04;;;;;;;56.73;36.95;;;;;;;-1.85;86.51;99762.97;3220642;85;21013;-73
2022/12/09 17:18:55;;;;;;;64.65;41.88;;;;;;;-1.85;86.94;99778.26;3244988;86;21075;-73
2022/12/09 17:23:46;;;;;;;61.33;38.67;;;;;;;-1.81;87.12;99783.98;3228945;87;21039;-74
2022/12/09 17:28:41;;;;;;;61.83;39.38;;;;;;;-1.78;87.27;99782.88;3150194;89;21257;-74
2022/12/09 17:33:32;;;;;;;56.55;41.30;;;;;;;-1.78;86.62;99788.84;3096707;90;21603;-74
2022/12/09 17:38:23;;;;;;;66.50;42.95;;;;;;;-1.74;87.14;99789.88;3047754;91;21028;-73
2022/12/09 17:43:14;;;;;;;73.60;46.73;;;;;;;-1.69;87.41;99790.98;3161547;88;21095;-74
2022/12/09 17:48:06;;;;;;;61.13;41.00;;;;;;;-1.63;87.47;99797.66;3102269;89;21027;-73
2022/12/09 17:52:57;;;;;;;63.85;41.42;;;;;;;-1.61;87.06;99789.72;3108781;89;21005;-73
2022/12/09 17:57:49;;;;;;;79.55;51.20;;;;;;;-1.61;87.01;99794.81;3138402;89;21022;-72
2022/12/09 18:02:40;;;;;;;92.33;58.38;;;;;;;-1.59;87.10;99802.13;3148537;88;20986;-72
2022/12/09 18:07:31;;;;;;;99.85;59.67;;;;;;;-1.52;87.55;99788.41;3156735;88;21074;-72
2022/12/09 18:12:23;;;;;;;92.85;60.60;;;;;;;-1.46;87.85;99786.18;3122855;89;20975;-72
2022/12/09 18:17:14;;;;;;;100.20;63.13;;;;;;;-1.40;88.20;99775.86;3132799;89;20994;-72
2022/12/09 18:22:05;;;;;;;95.95;59.63;;;;;;;-1.32;88.35;99774.99;3175674;88;21064;-73
2022/12/09 18:26:57;;;;;;;100.20;60.38;;;;;;;-1.26;88.59;99776.55;3162751;88;21010;-73
2022/12/09 18:31:54;;;;;;;98.78;60.40;;;;;;;-1.20;88.60;99767.94;3185205;87;21214;-72
2022/12/09 18:36:41;;;;;;;105.00;64.27;;;;;;;-1.18;88.53;99762.52;3213081;88;21495;-73
2022/12/09 18:41:34;;;;;;;102.92;66.45;;;;;;;-1.12;88.79;99753.00;3202064;88;21550;-73
2022/12/09 18:46:30;;;;;;;104.47;65.22;;;;;;;-1.07;88.87;99760.86;3218543;86;21504;-73
2022/12/09 18:51:21;;;;;;;100.27;65.22;;;;;;;-1.04;88.82;99759.73;3221278;87;21037;-73
2022/12/09 18:56:14;;;;;;;103.53;63.52;;;;;;;-1.02;88.94;99753.02;3234146;87;20981;-73
2022/12/09 19:01:26;;;;;;;109.65;65.65;;;;;;;-0.99;88.96;99758.28;3236684;87;21073;-73
2022/12/09 19:06:24;;;;;;;141.88;84.30;;;;;;;-0.97;88.98;99763.05;3136606;89;21505;-72
2022/12/09 19:11:15;;;;;;;118.65;73.25;;;;;;;-0.94;89.08;99747.90;3154397;89;21543;-72
2022/12/09 19:16:07;;;;;;;152.53;90.57;;;;;;;-0.90;89.15;99751.47;3195072;87;21144;-73
2022/12/09 19:21:07;;;;;;;120.62;70.62;;;;;;;-0.88;88.92;99759.66;3215294;87;21225;-73
2022/12/09 19:25:58;;;;;;;127.78;77.32;;;;;;;-0.85;89.19;99757.67;3232584;87;21597;-73
2022/12/09 19:30:49;;;;;;;136.77;84.42;;;;;;;-0.83;89.16;99760.75;3230922;87;21015;-72
2022/12/09 19:35:40;;;;;;;124.78;76.22;;;;;;;-0.82;89.24;99758.69;3242679;87;22049;-72
2022/12/09 19:40:31;;;;;;;145.47;88.70;;;;;;;-0.79;89.28;99763.95;3172014;89;21051;-73
2022/12/09 19:45:22;;;;;;;123.30;71.45;;;;;;;-0.77;89.30;99764.89;3182664;88;21129;-73
2022/12/09 19:50:13;;;;;;;110.97;69.25;;;;;;;-0.73;89.37;99770.11;3188806;88;21001;-73
2022/12/09 19:55:05;;;;;;;107.67;71.12;;;;;;;-0.73;89.35;99759.91;3120375;88;21007;-73
2022/12/09 19:59:56;;;;;;;111.17;70.17;;;;;;;-0.71;89.36;99763.43;3146435;89;20975;-73
2022/12/09 20:04:47;;;;;;;99.45;59.88;;;;;;;-0.70;89.43;99753.67;3187912;87;21142;-72
2022/12/09 20:09:38;;;;;;;91.53;58.70;;;;;;;-0.71;89.44;99743.01;3188694;88;20931;-73
2022/12/09 20:14:29;;;;;;;101.62;57.25;;;;;;;-0.69;89.46;99729.50;3209435;87;21618;-73
2022/12/09 20:19:20;;;;;;;99.52;61.13;;;;;;;-0.68;89.52;99736.74;3196944;87;20998;-72
2022/12/09 20:24:11;;;;;;;93.07;59.98;;;;;;;-0.67;89.55;99730.44;3250250;86;21472;-73
2022/12/09 20:29:07;;;;;;;94.22;59.25;;;;;;;-0.64;89.57;99738.66;3242490;85;21004;-73
2022/12/09 20:34:03;;;;;;;95.47;57.93;;;;;;;-0.62;89.54;99738.32;3223563;87;21222;-73
2022/12/09 20:38:59;;;;;;;89.43;57.60;;;;;;;-0.62;89.50;99734.49;3204725;87;20971;-73
2022/12/09 20:43:54;;;;;;;91.47;57.48;;;;;;;-0.60;89.52;99741.81;3183422;88;21311;-73
2022/12/09 20:48:46;;;;;;;94.67;57.03;;;;;;;-0.59;89.54;99739.72;3178823;88;20991;-73
2022/12/09 20:53:40;;;;;;;87.47;58.48;;;;;;;-0.57;89.53;99731.75;3190767;88;21090;-73
2022/12/09 20:58:31;;;;;;;88.60;55.78;;;;;;;-0.55;89.55;99733.07;3153625;89;21281;-73
2022/12/09 21:03:22;;;;;;;85.10;52.55;;;;;;;-0.53;89.57;99726.38;3195746;87;22564;-73
2022/12/09 21:08:14;;;;;;;92.27;55.67;;;;;;;-0.53;89.55;99725.97;3177472;87;20995;-73
2022/12/09 21:13:05;;;;;;;89.52;53.60;;;;;;;-0.51;89.55;99720.94;3124410;89;21559;-74
2022/12/09 21:17:56;;;;;;;87.15;54.83;;;;;;;-0.50;89.52;99728.67;3134583;89;21081;-74
2022/12/09 21:22:48;;;;;;;89.92;53.85;;;;;;;-0.48;89.51;99728.33;3189430;88;21198;-73
2022/12/09 21:27:39;;;;;;;83.45;49.90;;;;;;;-0.44;89.48;99730.62;3193169;88;21081;-74
2022/12/09 21:32:30;;;;;;;83.90;53.15;;;;;;;-0.43;89.44;99720.48;3224610;87;21028;-74
2022/12/09 21:37:22;;;;;;;86.05;54.65;;;;;;;-0.40;89.46;99726.98;3257637;84;21069;-74
2022/12/09 21:42:13;;;;;;;82.90;50.70;;;;;;;-0.39;89.44;99714.70;3127770;89;21518;-74
2022/12/09 21:47:04;;;;;;;80.42;51.73;;;;;;;-0.36;89.45;99715.62;3155367;88;21130;-75
2022/12/09 21:51:55;;;;;;;84.72;48.13;;;;;;;-0.39;89.44;99704.48;3213786;87;21016;-74
2022/12/09 21:56:46;;;;;;;85.17;52.30;;;;;;;-0.40;89.47;99697.61;3134713;89;21065;-74
2022/12/09 22:01:40;;;;;;;90.57;56.15;;;;;;;-0.40;89.51;99694.19;3235101;87;20914;-74
2022/12/09 22:06:31;;;;;;;87.67;52.93;;;;;;;-0.40;89.55;99689.95;3112444;88;21657;-74
2022/12/09 22:11:26;;;;;;;78.83;50.52;;;;;;;-0.39;89.58;99685.32;3143735;89;21555;-73
2022/12/09 22:16:23;;;;;;;78.37;52.75;;;;;;;-0.37;89.63;99680.70;3182830;88;21404;-74
2022/12/09 22:21:18;;;;;;;82.75;52.33;;;;;;;-0.37;89.68;99676.87;3148062;88;21612;-75
2022/12/09 22:26:14;;;;;;;85.47;54.15;;;;;;;-0.35;89.64;99673.97;3246717;86;21013;-73
2022/12/09 22:31:11;;;;;;;82.12;51.95;;;;;;;-0.33;89.67;99665.97;3087541;90;21002;-74
2022/12/09 22:36:09;;;;;;;79.22;50.35;;;;;;;-0.32;89.66;99661.31;3174508;88;21647;-74
2022/12/09 22:41:06;;;;;;;82.22;51.92;;;;;;;-0.31;89.65;99657.55;3126337;89;20970;-74
2022/12/09 22:46:07;;;;;;;84.33;54.47;;;;;;;-0.28;89.67;99658.11;3099488;90;21761;-74
2022/12/09 22:51:21;;;;;;;86.02;54.33;;;;;;;-0.27;89.68;99657.28;3132988;89;21464;-75